sensor_id;sensor_type;location;lat;lon;timestamp;temperature;humidity
27667;DHT22;15074;50.940;5.282;2023-02-02T00:01:52;7.60;99.90
27667;DHT22;15074;50.940;5.282;2023-02-02T00:04:28;7.70;99.90
27667;DHT22;15074;50.940;5.282;2023-02-02T00:06:54;7.70;99.90
27667;DHT22;15074;50.940;5.282;2023-02-02T00:09:26;7.70;99.90
27667;DHT22;15074;50.940;5.282;2023-02-02T00:11:53;7.80;99.90
27667;DHT22;15074;50.940;5.282;2023-02-02T00:14:20;7.70;99.90
27667;DHT22;15074;50.940;5.282;2023-02-02T00:16:48;7.70;99.90
27667;DHT22;15074;50.940;5.282;2023-02-02T00:19:27;7.80;99.90
27667;DHT22;15074;50.940;5.282;2023-02-02T00:21:53;7.80;99.90
27667;DHT22;15074;50.940;5.282;2023-02-02T00:24:20;7.80;99.90
27667;DHT22;15074;50.940;5.282;2023-02-02T00:26:49;7.80;99.90
27667;DHT22;15074;50.940;5.282;2023-02-02T00:29:21;7.80;99.90
27667;DHT22;15074;50.940;5.282;2023-02-02T00:31:48;7.80;99.90
27667;DHT22;15074;50.940;5.282;2023-02-02T00:34:14;7.80;99.90
27667;DHT22;15074;50.940;5.282;2023-02-02T00:36:41;7.80;99.90
27667;DHT22;15074;50.940;5.282;2023-02-02T00:39:09;7.80;99.90
27667;DHT22;15074;50.940;5.282;2023-02-02T00:41:35;7.80;99.90
27667;DHT22;15074;50.940;5.282;2023-02-02T00:44:00;7.80;99.90
27667;DHT22;15074;50.940;5.282;2023-02-02T00:46:44;7.80;99.90
27667;DHT22;15074;50.940;5.282;2023-02-02T00:49:10;7.80;99.90
27667;DHT22;15074;50.940;5.282;2023-02-02T00:51:36;7.80;99.90
27667;DHT22;15074;50.940;5.282;2023-02-02T00:54:03;7.80;99.90
27667;DHT22;15074;50.940;5.282;2023-02-02T00:56:28;7.90;99.90
27667;DHT22;15074;50.940;5.282;2023-02-02T00:58:54;7.90;99.90
27667;DHT22;15074;50.940;5.282;2023-02-02T01:01:20;7.90;99.90
27667;DHT22;15074;50.940;5.282;2023-02-02T01:03:50;7.90;99.90
27667;DHT22;15074;50.940;5.282;2023-02-02T01:06:16;7.90;99.90
27667;DHT22;15074;50.940;5.282;2023-02-02T01:08:42;7.90;99.90
27667;DHT22;15074;50.940;5.282;2023-02-02T01:11:08;8.00;99.90
27667;DHT22;15074;50.940;5.282;2023-02-02T01:13:33;7.90;99.90
27667;DHT22;15074;50.940;5.282;2023-02-02T01:16:00;7.90;99.90
27667;DHT22;15074;50.940;5.282;2023-02-02T01:18:26;8.00;99.90
27667;DHT22;15074;50.940;5.282;2023-02-02T01:21:05;8.00;99.90
27667;DHT22;15074;50.940;5.282;2023-02-02T01:23:32;8.10;99.90
27667;DHT22;15074;50.940;5.282;2023-02-02T01:26:00;8.00;99.90
27667;DHT22;15074;50.940;5.282;2023-02-02T01:28:26;8.00;99.90
27667;DHT22;15074;50.940;5.282;2023-02-02T01:30:52;8.00;99.90
27667;DHT22;15074;50.940;5.282;2023-02-02T01:33:19;8.10;99.90
27667;DHT22;15074;50.940;5.282;2023-02-02T01:35:54;8.10;99.90
27667;DHT22;15074;50.940;5.282;2023-02-02T01:38:21;8.00;99.90
27667;DHT22;15074;50.940;5.282;2023-02-02T01:40:52;8.10;99.90
27667;DHT22;15074;50.940;5.282;2023-02-02T01:43:26;8.10;99.90
27667;DHT22;15074;50.940;5.282;2023-02-02T01:45:54;8.10;99.90
27667;DHT22;15074;50.940;5.282;2023-02-02T01:48:27;8.10;99.90
27667;DHT22;15074;50.940;5.282;2023-02-02T01:51:04;8.00;99.90
27667;DHT22;15074;50.940;5.282;2023-02-02T01:53:31;8.00;99.90
27667;DHT22;15074;50.940;5.282;2023-02-02T01:55:58;8.00;99.90
27667;DHT22;15074;50.940;5.282;2023-02-02T01:58:34;8.00;99.90
27667;DHT22;15074;50.940;5.282;2023-02-02T02:01:01;8.00;99.90
27667;DHT22;15074;50.940;5.282;2023-02-02T02:03:28;8.00;99.90
27667;DHT22;15074;50.940;5.282;2023-02-02T02:05:58;8.10;99.90
27667;DHT22;15074;50.940;5.282;2023-02-02T02:08:34;8.00;99.90
27667;DHT22;15074;50.940;5.282;2023-02-02T02:11:01;8.00;99.90
27667;DHT22;15074;50.940;5.282;2023-02-02T02:13:28;8.00;99.90
27667;DHT22;15074;50.940;5.282;2023-02-02T02:16:30;8.00;99.90
27667;DHT22;15074;50.940;5.282;2023-02-02T02:22:13;8.00;99.90
27667;DHT22;15074;50.940;5.282;2023-02-02T02:32:20;8.00;99.90
27667;DHT22;15074;50.940;5.282;2023-02-02T02:40:02;8.00;99.90
27667;DHT22;15074;50.940;5.282;2023-02-02T02:42:32;8.00;99.90
27667;DHT22;15074;50.940;5.282;2023-02-02T02:45:01;8.00;99.90
27667;DHT22;15074;50.940;5.282;2023-02-02T02:47:29;8.00;99.90
27667;DHT22;15074;50.940;5.282;2023-02-02T02:49:56;8.00;99.90
27667;DHT22;15074;50.940;5.282;2023-02-02T02:52:22;8.00;99.90
27667;DHT22;15074;50.940;5.282;2023-02-02T02:54:50;8.00;99.90
27667;DHT22;15074;50.940;5.282;2023-02-02T03:08:36;8.00;99.90
27667;DHT22;15074;50.940;5.282;2023-02-02T03:11:06;8.00;99.90
27667;DHT22;15074;50.940;5.282;2023-02-02T03:13:33;8.00;99.90
27667;DHT22;15074;50.940;5.282;2023-02-02T03:15:59;8.00;99.90
27667;DHT22;15074;50.940;5.282;2023-02-02T03:18:27;8.00;99.90
27667;DHT22;15074;50.940;5.282;2023-02-02T03:20:53;8.00;99.90
27667;DHT22;15074;50.940;5.282;2023-02-02T03:23:19;8.00;99.90
27667;DHT22;15074;50.940;5.282;2023-02-02T03:25:45;8.00;99.90
27667;DHT22;15074;50.940;5.282;2023-02-02T03:28:11;8.00;99.90
27667;DHT22;15074;50.940;5.282;2023-02-02T03:30:37;8.00;99.90
27667;DHT22;15074;50.940;5.282;2023-02-02T03:33:04;8.00;99.90
27667;DHT22;15074;50.940;5.282;2023-02-02T03:35:30;8.00;99.90
27667;DHT22;15074;50.940;5.282;2023-02-02T03:37:56;8.00;99.90
27667;DHT22;15074;50.940;5.282;2023-02-02T03:40:22;8.00;99.90
27667;DHT22;15074;50.940;5.282;2023-02-02T03:42:48;8.10;99.90
27667;DHT22;15074;50.940;5.282;2023-02-02T03:45:13;8.10;99.90
27667;DHT22;15074;50.940;5.282;2023-02-02T03:47:39;8.10;99.90
27667;DHT22;15074;50.940;5.282;2023-02-02T03:50:06;8.00;99.90
27667;DHT22;15074;50.940;5.282;2023-02-02T03:52:32;8.10;99.90
27667;DHT22;15074;50.940;5.282;2023-02-02T03:54:57;8.10;99.90
27667;DHT22;15074;50.940;5.282;2023-02-02T03:57:23;8.00;99.90
27667;DHT22;15074;50.940;5.282;2023-02-02T03:59:49;7.90;99.90
27667;DHT22;15074;50.940;5.282;2023-02-02T04:02:14;8.00;99.90
27667;DHT22;15074;50.940;5.282;2023-02-02T04:04:40;7.90;99.90
27667;DHT22;15074;50.940;5.282;2023-02-02T04:07:06;8.00;99.90
27667;DHT22;15074;50.940;5.282;2023-02-02T04:09:31;8.00;99.90
27667;DHT22;15074;50.940;5.282;2023-02-02T04:11:57;8.00;99.90
27667;DHT22;15074;50.940;5.282;2023-02-02T04:14:22;8.00;99.90
27667;DHT22;15074;50.940;5.282;2023-02-02T04:16:48;8.00;99.90
27667;DHT22;15074;50.940;5.282;2023-02-02T04:19:14;7.90;99.90
27667;DHT22;15074;50.940;5.282;2023-02-02T04:21:41;7.90;99.90
27667;DHT22;15074;50.940;5.282;2023-02-02T04:24:10;7.90;99.90
27667;DHT22;15074;50.940;5.282;2023-02-02T04:26:36;7.90;99.90
27667;DHT22;15074;50.940;5.282;2023-02-02T04:29:02;7.90;99.90
27667;DHT22;15074;50.940;5.282;2023-02-02T04:31:28;7.90;99.90
27667;DHT22;15074;50.940;5.282;2023-02-02T04:33:55;7.90;99.90
27667;DHT22;15074;50.940;5.282;2023-02-02T04:36:20;7.90;99.90
27667;DHT22;15074;50.940;5.282;2023-02-02T04:38:53;7.80;99.90
27667;DHT22;15074;50.940;5.282;2023-02-02T04:41:20;7.80;99.90
27667;DHT22;15074;50.940;5.282;2023-02-02T04:43:46;7.80;99.90
27667;DHT22;15074;50.940;5.282;2023-02-02T04:46:12;7.80;99.90
27667;DHT22;15074;50.940;5.282;2023-02-02T04:48:38;7.70;99.90
27667;DHT22;15074;50.940;5.282;2023-02-02T04:51:08;7.70;99.90
27667;DHT22;15074;50.940;5.282;2023-02-02T04:53:34;7.60;99.90
27667;DHT22;15074;50.940;5.282;2023-02-02T04:56:13;7.60;99.90
27667;DHT22;15074;50.940;5.282;2023-02-02T04:58:39;7.60;99.90
27667;DHT22;15074;50.940;5.282;2023-02-02T05:03:35;7.70;99.90
27667;DHT22;15074;50.940;5.282;2023-02-02T05:06:01;7.70;99.90
27667;DHT22;15074;50.940;5.282;2023-02-02T05:08:27;7.70;99.90
27667;DHT22;15074;50.940;5.282;2023-02-02T05:10:53;7.70;99.90
27667;DHT22;15074;50.940;5.282;2023-02-02T05:13:19;7.70;99.90
27667;DHT22;15074;50.940;5.282;2023-02-02T05:15:44;7.80;99.90
27667;DHT22;15074;50.940;5.282;2023-02-02T05:18:10;7.80;99.90
27667;DHT22;15074;50.940;5.282;2023-02-02T05:20:36;7.80;99.90
27667;DHT22;15074;50.940;5.282;2023-02-02T05:23:01;7.80;99.90
27667;DHT22;15074;50.940;5.282;2023-02-02T05:25:27;7.80;99.90
27667;DHT22;15074;50.940;5.282;2023-02-02T05:27:53;7.80;99.90
27667;DHT22;15074;50.940;5.282;2023-02-02T05:30:18;7.90;99.90
27667;DHT22;15074;50.940;5.282;2023-02-02T05:32:44;7.80;99.90
27667;DHT22;15074;50.940;5.282;2023-02-02T05:35:10;7.90;99.90
27667;DHT22;15074;50.940;5.282;2023-02-02T05:37:35;7.80;99.90
27667;DHT22;15074;50.940;5.282;2023-02-02T05:40:02;7.90;99.90
27667;DHT22;15074;50.940;5.282;2023-02-02T05:42:28;7.80;99.90
27667;DHT22;15074;50.940;5.282;2023-02-02T05:44:54;7.80;99.90
27667;DHT22;15074;50.940;5.282;2023-02-02T05:47:19;7.80;99.90
27667;DHT22;15074;50.940;5.282;2023-02-02T05:49:46;7.90;99.90
27667;DHT22;15074;50.940;5.282;2023-02-02T05:52:17;7.80;99.90
27667;DHT22;15074;50.940;5.282;2023-02-02T05:54:44;7.80;99.90
27667;DHT22;15074;50.940;5.282;2023-02-02T05:57:09;7.90;99.90
27667;DHT22;15074;50.940;5.282;2023-02-02T05:59:35;7.90;99.90
27667;DHT22;15074;50.940;5.282;2023-02-02T06:02:01;7.90;99.90
27667;DHT22;15074;50.940;5.282;2023-02-02T06:04:26;7.90;99.90
27667;DHT22;15074;50.940;5.282;2023-02-02T06:06:52;7.90;99.90
27667;DHT22;15074;50.940;5.282;2023-02-02T06:09:17;7.90;99.90
27667;DHT22;15074;50.940;5.282;2023-02-02T06:11:44;7.90;99.90
27667;DHT22;15074;50.940;5.282;2023-02-02T06:14:09;7.90;99.90
27667;DHT22;15074;50.940;5.282;2023-02-02T06:16:35;7.90;99.90
27667;DHT22;15074;50.940;5.282;2023-02-02T06:19:01;7.90;99.90
27667;DHT22;15074;50.940;5.282;2023-02-02T06:21:27;8.00;99.90
27667;DHT22;15074;50.940;5.282;2023-02-02T06:23:56;8.10;99.90
27667;DHT22;15074;50.940;5.282;2023-02-02T06:26:22;8.00;99.90
27667;DHT22;15074;50.940;5.282;2023-02-02T06:28:50;8.10;99.90
27667;DHT22;15074;50.940;5.282;2023-02-02T06:31:16;8.10;99.90
27667;DHT22;15074;50.940;5.282;2023-02-02T06:33:44;8.00;99.90
27667;DHT22;15074;50.940;5.282;2023-02-02T06:36:11;8.00;99.90
27667;DHT22;15074;50.940;5.282;2023-02-02T06:38:36;8.00;99.90
27667;DHT22;15074;50.940;5.282;2023-02-02T06:41:02;8.00;99.90
27667;DHT22;15074;50.940;5.282;2023-02-02T06:43:29;8.00;99.90
27667;DHT22;15074;50.940;5.282;2023-02-02T06:45:58;8.00;99.90
27667;DHT22;15074;50.940;5.282;2023-02-02T06:48:24;8.10;99.90
27667;DHT22;15074;50.940;5.282;2023-02-02T06:50:50;8.00;99.90
27667;DHT22;15074;50.940;5.282;2023-02-02T06:53:16;8.00;99.90
27667;DHT22;15074;50.940;5.282;2023-02-02T06:55:58;8.00;99.90
27667;DHT22;15074;50.940;5.282;2023-02-02T06:58:25;8.00;99.90
27667;DHT22;15074;50.940;5.282;2023-02-02T07:00:51;8.00;99.90
27667;DHT22;15074;50.940;5.282;2023-02-02T07:03:18;8.00;99.90
27667;DHT22;15074;50.940;5.282;2023-02-02T07:05:46;8.00;99.90
27667;DHT22;15074;50.940;5.282;2023-02-02T07:08:12;8.00;99.90
27667;DHT22;15074;50.940;5.282;2023-02-02T07:10:37;7.90;99.90
27667;DHT22;15074;50.940;5.282;2023-02-02T07:13:03;7.90;99.90
27667;DHT22;15074;50.940;5.282;2023-02-02T07:15:33;7.90;99.90
27667;DHT22;15074;50.940;5.282;2023-02-02T07:17:59;7.90;99.90
27667;DHT22;15074;50.940;5.282;2023-02-02T07:20:26;7.90;99.90
27667;DHT22;15074;50.940;5.282;2023-02-02T07:22:51;7.90;99.90
27667;DHT22;15074;50.940;5.282;2023-02-02T07:25:17;7.90;99.90
27667;DHT22;15074;50.940;5.282;2023-02-02T07:27:43;7.90;99.90
27667;DHT22;15074;50.940;5.282;2023-02-02T07:30:09;7.80;99.90
27667;DHT22;15074;50.940;5.282;2023-02-02T07:32:35;7.80;99.90
27667;DHT22;15074;50.940;5.282;2023-02-02T07:35:00;7.80;99.90
27667;DHT22;15074;50.940;5.282;2023-02-02T07:37:26;7.80;99.90
27667;DHT22;15074;50.940;5.282;2023-02-02T07:39:52;7.80;99.90
27667;DHT22;15074;50.940;5.282;2023-02-02T07:42:17;7.80;99.90
27667;DHT22;15074;50.940;5.282;2023-02-02T07:44:43;7.70;99.90
27667;DHT22;15074;50.940;5.282;2023-02-02T07:47:09;7.70;99.90
27667;DHT22;15074;50.940;5.282;2023-02-02T07:49:34;7.70;99.90
27667;DHT22;15074;50.940;5.282;2023-02-02T07:52:00;7.70;99.90
27667;DHT22;15074;50.940;5.282;2023-02-02T07:54:26;7.70;99.90
27667;DHT22;15074;50.940;5.282;2023-02-02T07:56:51;7.70;99.90
27667;DHT22;15074;50.940;5.282;2023-02-02T07:59:17;7.70;99.90
27667;DHT22;15074;50.940;5.282;2023-02-02T08:01:43;7.70;99.90
27667;DHT22;15074;50.940;5.282;2023-02-02T08:04:08;7.70;99.90
27667;DHT22;15074;50.940;5.282;2023-02-02T08:06:36;7.70;99.90
27667;DHT22;15074;50.940;5.282;2023-02-02T08:09:04;7.70;99.90
27667;DHT22;15074;50.940;5.282;2023-02-02T08:11:30;7.60;99.90
27667;DHT22;15074;50.940;5.282;2023-02-02T08:14:00;7.60;99.90
27667;DHT22;15074;50.940;5.282;2023-02-02T08:16:27;7.60;99.90
27667;DHT22;15074;50.940;5.282;2023-02-02T08:18:53;7.50;99.90
27667;DHT22;15074;50.940;5.282;2023-02-02T08:21:19;7.50;99.90
27667;DHT22;15074;50.940;5.282;2023-02-02T08:23:46;7.50;99.90
27667;DHT22;15074;50.940;5.282;2023-02-02T08:26:18;7.50;99.90
27667;DHT22;15074;50.940;5.282;2023-02-02T08:28:46;7.50;99.90
27667;DHT22;15074;50.940;5.282;2023-02-02T08:31:18;7.50;99.90
27667;DHT22;15074;50.940;5.282;2023-02-02T08:33:44;7.50;99.90
27667;DHT22;15074;50.940;5.282;2023-02-02T08:36:14;7.50;99.90
27667;DHT22;15074;50.940;5.282;2023-02-02T08:38:40;7.60;99.90
27667;DHT22;15074;50.940;5.282;2023-02-02T08:41:09;7.60;99.90
27667;DHT22;15074;50.940;5.282;2023-02-02T08:43:35;7.70;99.90
27667;DHT22;15074;50.940;5.282;2023-02-02T08:46:01;7.70;99.90
27667;DHT22;15074;50.940;5.282;2023-02-02T08:48:27;7.80;99.90
27667;DHT22;15074;50.940;5.282;2023-02-02T08:50:54;7.80;99.90
27667;DHT22;15074;50.940;5.282;2023-02-02T08:53:21;7.90;99.90
27667;DHT22;15074;50.940;5.282;2023-02-02T08:55:47;7.90;99.90
27667;DHT22;15074;50.940;5.282;2023-02-02T08:58:13;7.90;99.90
27667;DHT22;15074;50.940;5.282;2023-02-02T09:00:39;8.00;99.90
27667;DHT22;15074;50.940;5.282;2023-02-02T09:03:05;8.00;99.90
27667;DHT22;15074;50.940;5.282;2023-02-02T09:05:31;8.00;99.90
27667;DHT22;15074;50.940;5.282;2023-02-02T09:07:57;8.10;99.90
27667;DHT22;15074;50.940;5.282;2023-02-02T09:10:22;8.10;99.90
27667;DHT22;15074;50.940;5.282;2023-02-02T09:12:48;8.10;99.90
27667;DHT22;15074;50.940;5.282;2023-02-02T09:15:14;8.20;99.90
27667;DHT22;15074;50.940;5.282;2023-02-02T09:17:39;8.20;99.90
27667;DHT22;15074;50.940;5.282;2023-02-02T09:20:05;8.20;99.90
27667;DHT22;15074;50.940;5.282;2023-02-02T09:22:32;8.20;99.90
27667;DHT22;15074;50.940;5.282;2023-02-02T09:24:57;8.20;99.90
27667;DHT22;15074;50.940;5.282;2023-02-02T09:27:23;8.30;99.90
27667;DHT22;15074;50.940;5.282;2023-02-02T09:29:49;8.30;99.90
27667;DHT22;15074;50.940;5.282;2023-02-02T09:32:14;8.30;99.90
27667;DHT22;15074;50.940;5.282;2023-02-02T09:34:40;8.30;99.90
27667;DHT22;15074;50.940;5.282;2023-02-02T09:37:07;8.30;99.90
27667;DHT22;15074;50.940;5.282;2023-02-02T09:39:32;8.40;99.90
27667;DHT22;15074;50.940;5.282;2023-02-02T09:44:53;8.40;99.90
27667;DHT22;15074;50.940;5.282;2023-02-02T09:52:40;8.50;99.90
27667;DHT22;15074;50.940;5.282;2023-02-02T09:57:59;8.60;99.90
27667;DHT22;15074;50.940;5.282;2023-02-02T10:02:59;8.70;99.90
27667;DHT22;15074;50.940;5.282;2023-02-02T10:05:41;8.70;99.90
27667;DHT22;15074;50.940;5.282;2023-02-02T10:08:15;8.80;99.90
27667;DHT22;15074;50.940;5.282;2023-02-02T10:10:44;8.80;99.90
27667;DHT22;15074;50.940;5.282;2023-02-02T10:13:16;8.90;99.90
27667;DHT22;15074;50.940;5.282;2023-02-02T10:15:53;8.90;99.90
27667;DHT22;15074;50.940;5.282;2023-02-02T10:23:45;9.00;99.90
27667;DHT22;15074;50.940;5.282;2023-02-02T10:32:24;9.10;99.90
27667;DHT22;15074;50.940;5.282;2023-02-02T10:51:40;9.50;99.90
27667;DHT22;15074;50.940;5.282;2023-02-02T10:54:28;9.60;99.90
27667;DHT22;15074;50.940;5.282;2023-02-02T10:56:57;9.50;99.90
27667;DHT22;15074;50.940;5.282;2023-02-02T10:59:30;9.60;99.90
27667;DHT22;15074;50.940;5.282;2023-02-02T11:01:57;9.70;99.90
27667;DHT22;15074;50.940;5.282;2023-02-02T11:04:23;9.60;99.90
27667;DHT22;15074;50.940;5.282;2023-02-02T11:07:09;9.60;99.90
27667;DHT22;15074;50.940;5.282;2023-02-02T11:09:44;9.70;99.90
27667;DHT22;15074;50.940;5.282;2023-02-02T11:12:22;9.60;99.90
27667;DHT22;15074;50.940;5.282;2023-02-02T11:14:49;9.70;99.90
27667;DHT22;15074;50.940;5.282;2023-02-02T11:17:22;9.60;99.90
27667;DHT22;15074;50.940;5.282;2023-02-02T11:19:48;9.60;99.90
27667;DHT22;15074;50.940;5.282;2023-02-02T11:22:28;9.60;99.90
27667;DHT22;15074;50.940;5.282;2023-02-02T11:24:56;9.60;99.90
27667;DHT22;15074;50.940;5.282;2023-02-02T11:29:55;9.60;99.90
27667;DHT22;15074;50.940;5.282;2023-02-02T11:37:30;9.80;99.90
27667;DHT22;15074;50.940;5.282;2023-02-02T11:42:46;10.10;99.90
27667;DHT22;15074;50.940;5.282;2023-02-02T11:45:17;10.40;99.90
27667;DHT22;15074;50.940;5.282;2023-02-02T11:47:44;10.40;99.90
27667;DHT22;15074;50.940;5.282;2023-02-02T11:50:24;10.60;99.90
27667;DHT22;15074;50.940;5.282;2023-02-02T11:52:50;10.60;99.90
27667;DHT22;15074;50.940;5.282;2023-02-02T11:55:29;10.60;99.90
27667;DHT22;15074;50.940;5.282;2023-02-02T11:58:20;10.80;99.90
27667;DHT22;15074;50.940;5.282;2023-02-02T12:00:52;10.70;99.90
27667;DHT22;15074;50.940;5.282;2023-02-02T12:03:36;10.80;99.90
27667;DHT22;15074;50.940;5.282;2023-02-02T12:06:22;11.00;99.90
27667;DHT22;15074;50.940;5.282;2023-02-02T12:08:49;11.20;99.90
27667;DHT22;15074;50.940;5.282;2023-02-02T12:11:48;11.10;99.90
27667;DHT22;15074;50.940;5.282;2023-02-02T12:16:54;10.90;99.90
27667;DHT22;15074;50.940;5.282;2023-02-02T12:19:36;10.80;99.90
27667;DHT22;15074;50.940;5.282;2023-02-02T12:22:27;10.70;99.90
27667;DHT22;15074;50.940;5.282;2023-02-02T12:27:37;10.60;99.90
27667;DHT22;15074;50.940;5.282;2023-02-02T12:38:37;10.60;99.90
27667;DHT22;15074;50.940;5.282;2023-02-02T12:44:15;11.00;99.90
27667;DHT22;15074;50.940;5.282;2023-02-02T12:47:10;11.40;99.90
27667;DHT22;15074;50.940;5.282;2023-02-02T12:50:02;12.70;99.90
27667;DHT22;15074;50.940;5.282;2023-02-02T12:52:54;13.30;99.90
27667;DHT22;15074;50.940;5.282;2023-02-02T13:01:07;12.50;99.90
27667;DHT22;15074;50.940;5.282;2023-02-02T13:09:28;12.50;99.90
27667;DHT22;15074;50.940;5.282;2023-02-02T13:12:01;12.90;99.90
27667;DHT22;15074;50.940;5.282;2023-02-02T13:14:34;12.30;99.90
27667;DHT22;15074;50.940;5.282;2023-02-02T13:17:20;11.60;99.90
27667;DHT22;15074;50.940;5.282;2023-02-02T13:19:50;11.10;99.90
27667;DHT22;15074;50.940;5.282;2023-02-02T13:22:40;10.90;99.90
27667;DHT22;15074;50.940;5.282;2023-02-02T13:25:17;10.70;99.90
27667;DHT22;15074;50.940;5.282;2023-02-02T13:27:44;10.60;99.90
27667;DHT22;15074;50.940;5.282;2023-02-02T13:32:50;10.80;99.90
27667;DHT22;15074;50.940;5.282;2023-02-02T13:36:17;11.20;99.90
27667;DHT22;15074;50.940;5.282;2023-02-02T13:38:35;11.60;99.90
27667;DHT22;15074;50.940;5.282;2023-02-02T13:41:08;12.00;99.90
27667;DHT22;15074;50.940;5.282;2023-02-02T13:46:54;12.10;99.90
27667;DHT22;15074;50.940;5.282;2023-02-02T13:52:02;11.80;99.90
27667;DHT22;15074;50.940;5.282;2023-02-02T14:02:49;11.60;99.90
27667;DHT22;15074;50.940;5.282;2023-02-02T14:08:06;11.50;99.90
27667;DHT22;15074;50.940;5.282;2023-02-02T14:10:38;11.30;99.90
27667;DHT22;15074;50.940;5.282;2023-02-02T14:15:58;11.20;99.90
27667;DHT22;15074;50.940;5.282;2023-02-02T14:26:51;11.30;99.90
27667;DHT22;15074;50.940;5.282;2023-02-02T14:31:58;11.00;99.90
27667;DHT22;15074;50.940;5.282;2023-02-02T14:43:10;11.00;99.90
27667;DHT22;15074;50.940;5.282;2023-02-02T14:48:42;10.90;99.90
27667;DHT22;15074;50.940;5.282;2023-02-02T14:51:20;10.90;99.90
27667;DHT22;15074;50.940;5.282;2023-02-02T14:53:55;10.80;99.90
27667;DHT22;15074;50.940;5.282;2023-02-02T14:56:39;10.70;99.90
27667;DHT22;15074;50.940;5.282;2023-02-02T14:59:05;10.60;99.90
27667;DHT22;15074;50.940;5.282;2023-02-02T15:01:41;10.50;99.90
27667;DHT22;15074;50.940;5.282;2023-02-02T15:06:50;10.40;99.90
27667;DHT22;15074;50.940;5.282;2023-02-02T15:19:48;10.50;99.90
27667;DHT22;15074;50.940;5.282;2023-02-02T15:25:00;10.40;99.90
27667;DHT22;15074;50.940;5.282;2023-02-02T15:27:28;10.40;99.90
27667;DHT22;15074;50.940;5.282;2023-02-02T15:30:00;10.30;99.90
27667;DHT22;15074;50.940;5.282;2023-02-02T15:32:27;10.30;99.90
27667;DHT22;15074;50.940;5.282;2023-02-02T15:34:59;10.30;99.90
27667;DHT22;15074;50.940;5.282;2023-02-02T15:37:30;10.20;99.90
27667;DHT22;15074;50.940;5.282;2023-02-02T15:40:19;10.20;99.90
27667;DHT22;15074;50.940;5.282;2023-02-02T15:42:50;10.10;99.90
27667;DHT22;15074;50.940;5.282;2023-02-02T15:45:48;10.20;99.90
27667;DHT22;15074;50.940;5.282;2023-02-02T15:48:26;10.20;99.90
27667;DHT22;15074;50.940;5.282;2023-02-02T15:50:56;10.10;99.90
27667;DHT22;15074;50.940;5.282;2023-02-02T15:53:26;10.20;99.90
27667;DHT22;15074;50.940;5.282;2023-02-02T15:55:54;10.20;99.90
27667;DHT22;15074;50.940;5.282;2023-02-02T15:58:32;10.10;99.90
27667;DHT22;15074;50.940;5.282;2023-02-02T16:01:02;10.00;99.90
27667;DHT22;15074;50.940;5.282;2023-02-02T16:03:37;10.00;99.90
27667;DHT22;15074;50.940;5.282;2023-02-02T16:06:07;9.90;99.90
27667;DHT22;15074;50.940;5.282;2023-02-02T16:08:36;10.00;99.90
27667;DHT22;15074;50.940;5.282;2023-02-02T16:11:23;10.10;99.90
27667;DHT22;15074;50.940;5.282;2023-02-02T16:14:12;10.10;99.90
27667;DHT22;15074;50.940;5.282;2023-02-02T16:16:38;10.10;99.90
27667;DHT22;15074;50.940;5.282;2023-02-02T16:19:12;10.00;99.90
27667;DHT22;15074;50.940;5.282;2023-02-02T16:22:20;10.00;99.90
27667;DHT22;15074;50.940;5.282;2023-02-02T16:24:46;10.10;99.90
27667;DHT22;15074;50.940;5.282;2023-02-02T16:27:16;10.10;99.90
27667;DHT22;15074;50.940;5.282;2023-02-02T16:29:42;10.10;99.90
27667;DHT22;15074;50.940;5.282;2023-02-02T16:32:32;10.00;99.90
27667;DHT22;15074;50.940;5.282;2023-02-02T16:34:59;10.10;99.90
27667;DHT22;15074;50.940;5.282;2023-02-02T16:37:29;10.00;99.90
27667;DHT22;15074;50.940;5.282;2023-02-02T16:40:26;10.10;99.90
27667;DHT22;15074;50.940;5.282;2023-02-02T16:43:15;10.00;99.90
27667;DHT22;15074;50.940;5.282;2023-02-02T16:54:00;9.90;99.90
27667;DHT22;15074;50.940;5.282;2023-02-02T16:56:39;9.90;99.90
27667;DHT22;15074;50.940;5.282;2023-02-02T16:59:26;9.90;99.90
27667;DHT22;15074;50.940;5.282;2023-02-02T17:01:59;9.80;99.90
27667;DHT22;15074;50.940;5.282;2023-02-02T17:04:33;9.80;99.90
27667;DHT22;15074;50.940;5.282;2023-02-02T17:07:08;9.80;99.90
27667;DHT22;15074;50.940;5.282;2023-02-02T17:09:40;9.80;99.90
27667;DHT22;15074;50.940;5.282;2023-02-02T17:12:26;9.80;99.90
27667;DHT22;15074;50.940;5.282;2023-02-02T17:15:00;9.80;99.90
27667;DHT22;15074;50.940;5.282;2023-02-02T17:17:29;9.80;99.90
27667;DHT22;15074;50.940;5.282;2023-02-02T17:19:55;9.80;99.90
27667;DHT22;15074;50.940;5.282;2023-02-02T17:22:23;9.70;99.90
27667;DHT22;15074;50.940;5.282;2023-02-02T17:24:50;9.70;99.90
27667;DHT22;15074;50.940;5.282;2023-02-02T17:27:27;9.70;99.90
27667;DHT22;15074;50.940;5.282;2023-02-02T17:29:53;9.70;99.90
27667;DHT22;15074;50.940;5.282;2023-02-02T17:32:19;9.60;99.90
27667;DHT22;15074;50.940;5.282;2023-02-02T17:34:45;9.60;99.90
27667;DHT22;15074;50.940;5.282;2023-02-02T17:37:11;9.50;99.90
27667;DHT22;15074;50.940;5.282;2023-02-02T17:39:37;9.50;99.90
27667;DHT22;15074;50.940;5.282;2023-02-02T17:42:03;9.50;99.90
27667;DHT22;15074;50.940;5.282;2023-02-02T17:44:29;9.50;99.90
27667;DHT22;15074;50.940;5.282;2023-02-02T17:46:55;9.50;99.90
27667;DHT22;15074;50.940;5.282;2023-02-02T17:49:21;9.60;99.90
27667;DHT22;15074;50.940;5.282;2023-02-02T17:51:46;9.50;99.90
27667;DHT22;15074;50.940;5.282;2023-02-02T17:54:13;9.60;99.90
27667;DHT22;15074;50.940;5.282;2023-02-02T17:56:40;9.60;99.90
27667;DHT22;15074;50.940;5.282;2023-02-02T17:59:07;9.50;99.90
27667;DHT22;15074;50.940;5.282;2023-02-02T18:01:34;9.50;99.90
27667;DHT22;15074;50.940;5.282;2023-02-02T18:04:01;9.40;99.90
27667;DHT22;15074;50.940;5.282;2023-02-02T18:06:27;9.40;99.90
27667;DHT22;15074;50.940;5.282;2023-02-02T18:08:52;9.40;99.90
27667;DHT22;15074;50.940;5.282;2023-02-02T18:11:18;9.40;99.90
27667;DHT22;15074;50.940;5.282;2023-02-02T18:13:44;9.40;99.90
27667;DHT22;15074;50.940;5.282;2023-02-02T18:16:10;9.40;99.90
27667;DHT22;15074;50.940;5.282;2023-02-02T18:18:37;9.50;99.90
27667;DHT22;15074;50.940;5.282;2023-02-02T18:21:08;9.40;99.90
27667;DHT22;15074;50.940;5.282;2023-02-02T18:23:34;9.30;99.90
27667;DHT22;15074;50.940;5.282;2023-02-02T18:26:14;9.20;99.90
27667;DHT22;15074;50.940;5.282;2023-02-02T18:28:42;9.10;99.90
27667;DHT22;15074;50.940;5.282;2023-02-02T18:31:12;9.20;99.90
27667;DHT22;15074;50.940;5.282;2023-02-02T18:33:39;9.20;99.90
27667;DHT22;15074;50.940;5.282;2023-02-02T18:36:10;9.20;99.90
27667;DHT22;15074;50.940;5.282;2023-02-02T18:38:37;9.10;99.90
27667;DHT22;15074;50.940;5.282;2023-02-02T18:41:03;9.10;99.90
27667;DHT22;15074;50.940;5.282;2023-02-02T18:43:29;9.10;99.90
27667;DHT22;15074;50.940;5.282;2023-02-02T18:45:57;9.20;99.90
27667;DHT22;15074;50.940;5.282;2023-02-02T18:48:23;9.20;99.90
27667;DHT22;15074;50.940;5.282;2023-02-02T18:50:48;9.20;99.90
27667;DHT22;15074;50.940;5.282;2023-02-02T18:53:14;9.20;99.90
27667;DHT22;15074;50.940;5.282;2023-02-02T18:55:42;9.20;99.90
27667;DHT22;15074;50.940;5.282;2023-02-02T18:58:08;9.20;99.90